createdAt,value
2022-12-08T00:00:23.309Z,100.00
2022-12-08T00:05:43.499Z,100.00
2022-12-08T00:10:49.957Z,100.00
2022-12-08T00:15:51.711Z,100.00
2022-12-08T00:20:57.693Z,100.00
2022-12-08T00:26:06.199Z,100.00
2022-12-08T00:31:09.923Z,100.00
2022-12-08T00:36:13.865Z,100.00
2022-12-08T00:41:18.427Z,100.00
2022-12-08T00:46:20.170Z,100.00
2022-12-08T00:51:21.806Z,100.00
2022-12-08T00:56:23.524Z,100.00
2022-12-08T01:01:25.153Z,100.00
2022-12-08T01:06:26.712Z,100.00
2022-12-08T01:11:28.845Z,100.00
2022-12-08T01:16:33.941Z,100.00
2022-12-08T01:21:36.380Z,100.00
2022-12-08T01:26:38.312Z,100.00
2022-12-08T01:31:40.059Z,100.00
2022-12-08T01:36:42.223Z,100.00
2022-12-08T01:41:45.370Z,100.00
2022-12-08T01:46:49.882Z,100.00
2022-12-08T01:51:59.074Z,100.00
2022-12-08T01:57:15.188Z,100.00
2022-12-08T02:02:17.157Z,100.00
2022-12-08T02:07:18.956Z,100.00
2022-12-08T02:12:20.765Z,100.00
2022-12-08T02:17:49.536Z,100.00
2022-12-08T02:23:28.638Z,100.00
2022-12-08T02:28:52.829Z,100.00
2022-12-08T02:34:16.135Z,100.00
2022-12-08T02:39:27.131Z,100.00
2022-12-08T02:44:35.158Z,100.00
2022-12-08T02:49:36.750Z,100.00
2022-12-08T02:54:50.668Z,100.00
2022-12-08T03:00:16.994Z,100.00
2022-12-08T03:05:27.341Z,100.00
2022-12-08T03:10:37.681Z,100.00
2022-12-08T03:15:41.657Z,100.00
2022-12-08T03:20:46.393Z,100.00
2022-12-08T03:25:56.795Z,100.00
2022-12-08T03:31:03.011Z,100.00
2022-12-08T03:36:08.925Z,100.00
2022-12-08T03:41:20.056Z,100.00
2022-12-08T03:51:24.704Z,100.00
2022-12-08T03:56:32.789Z,100.00
2022-12-08T04:01:34.463Z,100.00
2022-12-08T04:06:36.146Z,100.00
2022-12-08T04:11:37.758Z,100.00
2022-12-08T04:16:39.381Z,100.00
2022-12-08T04:21:41.110Z,100.00
2022-12-08T04:26:42.655Z,100.00
2022-12-08T04:31:44.753Z,100.00
2022-12-08T04:36:48.517Z,100.00
2022-12-08T04:41:50.109Z,100.00
2022-12-08T04:46:51.756Z,100.00
2022-12-08T04:51:53.355Z,100.00
2022-12-08T04:56:55.070Z,100.00
2022-12-08T05:01:56.818Z,100.00
2022-12-08T05:06:58.781Z,100.00
2022-12-08T05:12:00.427Z,100.00
2022-12-08T05:17:07.758Z,100.00
2022-12-08T05:22:11.383Z,100.00
2022-12-08T05:27:12.976Z,100.00
2022-12-08T05:32:14.606Z,100.00
2022-12-08T05:37:16.222Z,100.00
2022-12-08T05:42:23.142Z,100.00
2022-12-08T05:47:27.523Z,100.00
2022-12-08T05:52:30.398Z,100.00
2022-12-08T05:57:32.059Z,100.00
2022-12-08T06:02:34.128Z,100.00
2022-12-08T06:07:35.908Z,100.00
2022-12-08T06:12:37.785Z,100.00
2022-12-08T06:17:39.355Z,100.00
2022-12-08T06:22:40.943Z,100.00
2022-12-08T06:27:42.531Z,100.00
2022-12-08T06:32:44.258Z,100.00
2022-12-08T06:37:45.840Z,100.00
2022-12-08T06:42:47.704Z,100.00
2022-12-08T06:47:49.248Z,100.00
2022-12-08T06:53:01.090Z,100.00
2022-12-08T06:58:06.541Z,100.00
2022-12-08T07:03:09.862Z,100.00
2022-12-08T07:08:11.733Z,100.00
2022-12-08T07:13:13.360Z,100.00
2022-12-08T07:18:14.958Z,100.00
2022-12-08T07:23:16.804Z,100.00
2022-12-08T07:28:18.347Z,100.00
2022-12-08T07:33:19.905Z,100.00
2022-12-08T07:38:21.445Z,100.00
2022-12-08T07:43:23.634Z,100.00
2022-12-08T07:48:25.177Z,100.00
2022-12-08T07:53:29.291Z,100.00
2022-12-08T07:58:30.842Z,100.00
2022-12-08T08:03:33.416Z,100.00
2022-12-08T08:08:34.968Z,100.00
2022-12-08T08:13:37.356Z,100.00
2022-12-08T08:18:40.246Z,100.00
2022-12-08T08:23:41.787Z,100.00
2022-12-08T08:28:45.787Z,100.00
2022-12-08T08:33:49.519Z,100.00
2022-12-08T08:38:51.132Z,100.00
2022-12-08T08:43:54.825Z,100.00
2022-12-08T08:48:56.639Z,100.00
2022-12-08T08:53:58.564Z,100.00
2022-12-08T08:59:00.141Z,100.00
2022-12-08T09:04:01.903Z,100.00
2022-12-08T09:09:03.912Z,100.00
2022-12-08T09:14:05.665Z,100.00
2022-12-08T09:19:07.332Z,100.00
2022-12-08T09:24:15.542Z,100.00
2022-12-08T09:35:33.909Z,100.00
2022-12-08T09:40:49.015Z,100.00
2022-12-08T09:45:51.804Z,100.00
2022-12-08T09:50:56.420Z,100.00
2022-12-08T09:56:08.660Z,100.00
2022-12-08T10:01:11.522Z,100.00
2022-12-08T10:06:21.573Z,100.00
2022-12-08T10:11:32.719Z,100.00
2022-12-08T10:16:39.186Z,100.00
2022-12-08T10:21:43.878Z,100.00
2022-12-08T10:26:49.188Z,100.00
2022-12-08T10:31:50.826Z,100.00
2022-12-08T10:36:58.345Z,100.00
2022-12-08T10:42:09.227Z,100.00
2022-12-08T10:47:14.065Z,100.00
2022-12-08T10:52:25.374Z,100.00
2022-12-08T10:57:27.087Z,100.00
2022-12-08T11:02:28.778Z,100.00
2022-12-08T11:07:30.505Z,100.00
2022-12-08T11:12:32.199Z,100.00
2022-12-08T11:17:39.518Z,100.00
2022-12-08T11:22:54.186Z,100.00
2022-12-08T11:28:01.211Z,100.00
2022-12-08T11:33:16.420Z,100.00
2022-12-08T11:38:24.312Z,100.00
2022-12-08T11:43:34.838Z,100.00
2022-12-08T11:48:38.406Z,99.17
2022-12-08T11:54:07.101Z,98.14
2022-12-08T11:59:15.876Z,97.21
2022-12-08T12:04:31.138Z,96.62
2022-12-08T12:09:51.882Z,97.38
2022-12-08T12:15:30.074Z,96.22
2022-12-08T12:20:57.560Z,95.14
2022-12-08T12:26:02.569Z,94.93
2022-12-08T12:31:12.060Z,93.53
2022-12-08T12:36:15.237Z,93.52
2022-12-08T12:41:25.533Z,93.33
2022-12-08T12:46:27.344Z,92.99
2022-12-08T12:51:39.006Z,93.05
2022-12-08T12:56:55.520Z,91.80
2022-12-08T13:01:57.482Z,90.88
2022-12-08T13:06:59.839Z,91.51
2022-12-08T13:12:10.344Z,89.69
2022-12-08T13:17:16.217Z,90.51
2022-12-08T13:22:50.513Z,89.95
2022-12-08T13:27:53.898Z,88.50
2022-12-08T13:38:25.493Z,88.66
2022-12-08T14:00:37.035Z,88.91
2022-12-08T14:06:11.192Z,88.70
2022-12-08T14:11:06.953Z,88.07
2022-12-08T14:16:39.551Z,89.10
2022-12-08T14:21:57.929Z,89.21
2022-12-08T14:27:02.192Z,88.75
2022-12-08T14:32:05.934Z,88.65
2022-12-08T14:37:12.941Z,89.08
2022-12-08T14:42:25.129Z,89.55
2022-12-08T14:47:33.362Z,88.59
2022-12-08T14:52:34.952Z,88.99
2022-12-08T14:57:36.582Z,89.20
2022-12-08T15:02:45.851Z,89.20
2022-12-08T15:07:52.206Z,90.00
2022-12-08T15:13:17.610Z,89.87
2022-12-08T15:18:35.607Z,90.12
2022-12-08T15:23:44.764Z,89.54
2022-12-08T15:28:46.339Z,90.33
2022-12-08T15:33:47.965Z,89.97
2022-12-08T15:38:49.536Z,90.40
2022-12-08T15:43:51.044Z,90.06
2022-12-08T15:48:57.883Z,90.62
2022-12-08T15:53:59.806Z,90.54
2022-12-08T15:59:01.364Z,90.32
2022-12-08T16:09:32.160Z,90.64
2022-12-08T16:15:39.771Z,90.54
2022-12-08T16:19:55.882Z,90.52
2022-12-08T16:25:05.001Z,91.07
2022-12-08T16:30:18.035Z,91.21
2022-12-08T16:35:19.620Z,91.13
2022-12-08T16:40:21.328Z,91.37
2022-12-08T16:45:28.851Z,91.42
2022-12-08T16:50:32.959Z,91.50
2022-12-08T16:55:35.007Z,91.37
2022-12-08T17:00:37.269Z,91.93
2022-12-08T17:05:40.890Z,91.79
2022-12-08T17:10:42.662Z,91.70
2022-12-08T17:15:44.204Z,91.82
2022-12-08T17:20:45.755Z,91.81
2022-12-08T17:25:58.791Z,91.84
2022-12-08T17:31:00.478Z,92.00
2022-12-08T17:36:02.036Z,92.07
2022-12-08T17:41:08.645Z,93.34
2022-12-08T17:46:16.106Z,94.17
2022-12-08T17:51:18.293Z,94.52
2022-12-08T17:56:21.522Z,94.66
2022-12-08T18:01:23.709Z,94.69
2022-12-08T18:06:29.639Z,95.00
2022-12-08T18:11:33.699Z,94.90
2022-12-08T18:16:40.204Z,95.00
2022-12-08T18:21:42.520Z,95.00
2022-12-08T18:26:44.139Z,95.42
2022-12-08T18:31:45.718Z,95.44
2022-12-08T18:36:47.577Z,95.56
2022-12-08T18:41:49.298Z,95.82
2022-12-08T18:46:51.068Z,95.64
2022-12-08T18:51:52.970Z,96.22
2022-12-08T18:56:54.582Z,96.43
2022-12-08T19:01:57.750Z,96.23
2022-12-08T19:06:59.338Z,96.54
2022-12-08T19:12:00.895Z,96.58
2022-12-08T19:17:02.476Z,96.74
2022-12-08T19:22:04.054Z,97.16
2022-12-08T19:27:05.972Z,97.12
2022-12-08T19:32:07.579Z,97.45
2022-12-08T19:37:12.472Z,97.86
2022-12-08T19:42:39.435Z,97.93
2022-12-08T19:47:42.130Z,98.09
2022-12-08T19:52:44.754Z,97.89
2022-12-08T19:57:46.320Z,98.20
2022-12-08T20:02:48.589Z,98.17
2022-12-08T20:07:50.438Z,97.86
2022-12-08T20:13:12.009Z,97.58
2022-12-08T20:18:15.232Z,98.13
2022-12-08T20:23:17.044Z,98.71
2022-12-08T20:28:19.206Z,98.83
2022-12-08T20:33:20.824Z,99.28
2022-12-08T20:38:22.392Z,99.59
2022-12-08T20:43:25.262Z,99.65
2022-12-08T20:48:26.975Z,99.88
2022-12-08T20:53:29.297Z,100.00
2022-12-08T20:58:30.893Z,100.00
2022-12-08T21:03:32.954Z,100.00
2022-12-08T21:08:35.431Z,100.00
2022-12-08T21:13:38.579Z,100.00
2022-12-08T21:18:41.231Z,100.00
2022-12-08T21:23:43.207Z,100.00
2022-12-08T21:28:45.080Z,100.00
2022-12-08T21:33:47.036Z,100.00
2022-12-08T21:38:49.008Z,100.00
2022-12-08T21:43:50.648Z,100.00
2022-12-08T21:48:52.450Z,100.00
2022-12-08T21:53:55.077Z,100.00
2022-12-08T21:58:57.109Z,100.00
2022-12-08T22:03:58.875Z,100.00
2022-12-08T22:09:00.685Z,100.00
2022-12-08T22:14:02.391Z,100.00
2022-12-08T22:19:04.072Z,100.00
2022-12-08T22:24:06.323Z,100.00
2022-12-08T22:29:08.486Z,100.00
2022-12-08T22:34:10.363Z,100.00
2022-12-08T22:39:12.678Z,100.00
2022-12-08T22:44:15.943Z,100.00
2022-12-08T22:49:17.630Z,100.00
2022-12-08T22:54:19.556Z,100.00
2022-12-08T22:59:21.150Z,100.00
2022-12-08T23:04:23.051Z,100.00
2022-12-08T23:09:24.783Z,100.00
2022-12-08T23:14:26.446Z,100.00
2022-12-08T23:19:28.031Z,100.00
2022-12-08T23:24:29.784Z,100.00
2022-12-08T23:29:31.413Z,100.00
2022-12-08T23:34:35.123Z,100.00
2022-12-08T23:39:36.665Z,100.00
2022-12-08T23:44:38.259Z,100.00
2022-12-08T23:49:39.834Z,100.00
2022-12-08T23:54:41.466Z,100.00
2022-12-08T23:59:43.110Z,100.00
